sensor_id;sensor_type;location;lat;lon;timestamp;temperature;humidity
47576;DHT22;33304;52.456;13.328;2022-07-06T00:01:18;18.40;11.70
47576;DHT22;33304;52.456;13.328;2022-07-06T00:03:45;18.30;11.70
47576;DHT22;33304;52.456;13.328;2022-07-06T00:06:12;18.30;11.80
47576;DHT22;33304;52.456;13.328;2022-07-06T00:08:40;18.30;11.90
47576;DHT22;33304;52.456;13.328;2022-07-06T00:11:07;18.20;12.20
47576;DHT22;33304;52.456;13.328;2022-07-06T00:13:35;18.20;12.50
47576;DHT22;33304;52.456;13.328;2022-07-06T00:16:03;18.30;12.40
47576;DHT22;33304;52.456;13.328;2022-07-06T00:18:30;18.20;12.60
47576;DHT22;33304;52.456;13.328;2022-07-06T00:20:57;18.20;12.90
47576;DHT22;33304;52.456;13.328;2022-07-06T00:23:25;18.20;13.00
47576;DHT22;33304;52.456;13.328;2022-07-06T00:25:52;18.10;13.00
47576;DHT22;33304;52.456;13.328;2022-07-06T00:28:19;18.10;13.10
47576;DHT22;33304;52.456;13.328;2022-07-06T00:30:47;18.10;13.20
47576;DHT22;33304;52.456;13.328;2022-07-06T00:33:15;18.10;13.40
47576;DHT22;33304;52.456;13.328;2022-07-06T00:35:42;18.00;13.50
47576;DHT22;33304;52.456;13.328;2022-07-06T00:38:09;18.00;13.70
47576;DHT22;33304;52.456;13.328;2022-07-06T00:40:36;18.00;13.70
47576;DHT22;33304;52.456;13.328;2022-07-06T00:43:04;18.00;13.60
47576;DHT22;33304;52.456;13.328;2022-07-06T00:45:32;18.10;14.10
47576;DHT22;33304;52.456;13.328;2022-07-06T00:48:01;18.00;13.90
47576;DHT22;33304;52.456;13.328;2022-07-06T00:50:29;17.90;14.00
47576;DHT22;33304;52.456;13.328;2022-07-06T00:52:59;17.90;14.40
47576;DHT22;33304;52.456;13.328;2022-07-06T00:55:28;18.00;14.50
47576;DHT22;33304;52.456;13.328;2022-07-06T00:57:56;18.00;14.40
47576;DHT22;33304;52.456;13.328;2022-07-06T01:00:26;17.90;14.50
47576;DHT22;33304;52.456;13.328;2022-07-06T01:02:54;17.90;14.60
47576;DHT22;33304;52.456;13.328;2022-07-06T01:05:23;17.90;14.80
47576;DHT22;33304;52.456;13.328;2022-07-06T01:07:52;17.90;15.00
47576;DHT22;33304;52.456;13.328;2022-07-06T01:10:20;17.80;15.00
47576;DHT22;33304;52.456;13.328;2022-07-06T01:12:48;17.80;15.30
47576;DHT22;33304;52.456;13.328;2022-07-06T01:15:17;17.70;15.30
47576;DHT22;33304;52.456;13.328;2022-07-06T01:17:45;17.80;15.20
47576;DHT22;33304;52.456;13.328;2022-07-06T01:20:15;17.70;15.50
47576;DHT22;33304;52.456;13.328;2022-07-06T01:22:43;17.70;15.50
47576;DHT22;33304;52.456;13.328;2022-07-06T01:25:11;17.70;15.70
47576;DHT22;33304;52.456;13.328;2022-07-06T01:27:39;17.60;16.00
47576;DHT22;33304;52.456;13.328;2022-07-06T01:30:09;17.60;16.00
47576;DHT22;33304;52.456;13.328;2022-07-06T01:32:37;17.60;16.00
47576;DHT22;33304;52.456;13.328;2022-07-06T01:35:06;17.60;16.20
47576;DHT22;33304;52.456;13.328;2022-07-06T01:37:35;17.60;16.20
47576;DHT22;33304;52.456;13.328;2022-07-06T01:40:04;17.60;16.30
47576;DHT22;33304;52.456;13.328;2022-07-06T01:42:33;17.60;16.40
47576;DHT22;33304;52.456;13.328;2022-07-06T01:45:00;17.60;16.60
47576;DHT22;33304;52.456;13.328;2022-07-06T01:47:27;17.60;16.30
47576;DHT22;33304;52.456;13.328;2022-07-06T01:49:57;17.70;16.30
47576;DHT22;33304;52.456;13.328;2022-07-06T01:52:26;17.60;16.20
47576;DHT22;33304;52.456;13.328;2022-07-06T01:54:54;17.60;16.10
47576;DHT22;33304;52.456;13.328;2022-07-06T01:57:22;17.60;15.90
47576;DHT22;33304;52.456;13.328;2022-07-06T01:59:50;17.70;15.60
47576;DHT22;33304;52.456;13.328;2022-07-06T02:02:18;17.70;15.80
47576;DHT22;33304;52.456;13.328;2022-07-06T02:04:45;17.60;15.80
47576;DHT22;33304;52.456;13.328;2022-07-06T02:07:13;17.70;15.90
47576;DHT22;33304;52.456;13.328;2022-07-06T02:09:40;17.80;15.70
47576;DHT22;33304;52.456;13.328;2022-07-06T02:12:08;17.70;16.00
47576;DHT22;33304;52.456;13.328;2022-07-06T02:14:36;17.70;16.30
47576;DHT22;33304;52.456;13.328;2022-07-06T02:17:03;17.60;17.70
47576;DHT22;33304;52.456;13.328;2022-07-06T02:19:30;17.30;18.40
47576;DHT22;33304;52.456;13.328;2022-07-06T02:21:57;17.20;21.10
47576;DHT22;33304;52.456;13.328;2022-07-06T02:24:24;17.00;22.10
47576;DHT22;33304;52.456;13.328;2022-07-06T02:26:52;16.90;21.60
47576;DHT22;33304;52.456;13.328;2022-07-06T02:29:21;16.80;22.90
47576;DHT22;33304;52.456;13.328;2022-07-06T02:31:49;16.70;22.30
47576;DHT22;33304;52.456;13.328;2022-07-06T02:34:16;16.70;22.90
47576;DHT22;33304;52.456;13.328;2022-07-06T02:36:43;16.70;23.70
47576;DHT22;33304;52.456;13.328;2022-07-06T02:39:10;16.60;22.90
47576;DHT22;33304;52.456;13.328;2022-07-06T02:41:39;16.60;23.70
47576;DHT22;33304;52.456;13.328;2022-07-06T02:44:06;16.60;24.50
47576;DHT22;33304;52.456;13.328;2022-07-06T02:46:35;16.60;23.90
47576;DHT22;33304;52.456;13.328;2022-07-06T02:49:02;16.60;24.00
47576;DHT22;33304;52.456;13.328;2022-07-06T02:51:30;16.60;23.90
47576;DHT22;33304;52.456;13.328;2022-07-06T02:53:58;16.60;22.90
47576;DHT22;33304;52.456;13.328;2022-07-06T02:56:25;16.60;23.30
47576;DHT22;33304;52.456;13.328;2022-07-06T02:58:54;16.70;23.40
47576;DHT22;33304;52.456;13.328;2022-07-06T03:01:21;16.70;22.50
47576;DHT22;33304;52.456;13.328;2022-07-06T03:03:50;16.60;23.20
47576;DHT22;33304;52.456;13.328;2022-07-06T03:06:17;16.40;22.80
47576;DHT22;33304;52.456;13.328;2022-07-06T03:08:44;16.50;23.10
47576;DHT22;33304;52.456;13.328;2022-07-06T03:11:12;16.50;22.80
47576;DHT22;33304;52.456;13.328;2022-07-06T03:13:39;16.50;23.70
47576;DHT22;33304;52.456;13.328;2022-07-06T03:16:06;16.60;23.70
47576;DHT22;33304;52.456;13.328;2022-07-06T03:18:33;16.50;22.90
47576;DHT22;33304;52.456;13.328;2022-07-06T03:21:02;16.40;22.50
47576;DHT22;33304;52.456;13.328;2022-07-06T03:23:30;16.50;22.90
47576;DHT22;33304;52.456;13.328;2022-07-06T03:25:58;16.60;23.10
47576;DHT22;33304;52.456;13.328;2022-07-06T03:28:25;16.70;22.90
47576;DHT22;33304;52.456;13.328;2022-07-06T03:30:52;16.80;22.90
47576;DHT22;33304;52.456;13.328;2022-07-06T03:33:20;16.70;22.30
47576;DHT22;33304;52.456;13.328;2022-07-06T03:35:47;16.70;22.40
47576;DHT22;33304;52.456;13.328;2022-07-06T03:38:16;16.60;22.80
47576;DHT22;33304;52.456;13.328;2022-07-06T03:40:43;16.60;22.70
47576;DHT22;33304;52.456;13.328;2022-07-06T03:43:11;16.50;22.50
47576;DHT22;33304;52.456;13.328;2022-07-06T03:45:38;16.60;22.80
47576;DHT22;33304;52.456;13.328;2022-07-06T03:48:06;16.50;22.90
47576;DHT22;33304;52.456;13.328;2022-07-06T03:50:36;16.40;23.20
47576;DHT22;33304;52.456;13.328;2022-07-06T03:53:04;16.50;23.30
47576;DHT22;33304;52.456;13.328;2022-07-06T03:55:33;16.50;23.10
47576;DHT22;33304;52.456;13.328;2022-07-06T03:58:04;16.40;23.40
47576;DHT22;33304;52.456;13.328;2022-07-06T04:00:32;16.40;23.50
47576;DHT22;33304;52.456;13.328;2022-07-06T04:03:03;16.40;24.50
47576;DHT22;33304;52.456;13.328;2022-07-06T04:05:36;16.60;24.50
47576;DHT22;33304;52.456;13.328;2022-07-06T04:08:04;16.80;23.20
47576;DHT22;33304;52.456;13.328;2022-07-06T04:10:39;16.50;23.70
47576;DHT22;33304;52.456;13.328;2022-07-06T04:13:06;16.50;24.30
47576;DHT22;33304;52.456;13.328;2022-07-06T04:15:34;16.60;24.20
47576;DHT22;33304;52.456;13.328;2022-07-06T04:18:02;16.50;24.30
47576;DHT22;33304;52.456;13.328;2022-07-06T04:20:38;16.50;24.00
47576;DHT22;33304;52.456;13.328;2022-07-06T04:23:06;16.60;24.00
47576;DHT22;33304;52.456;13.328;2022-07-06T04:25:34;16.70;24.30
47576;DHT22;33304;52.456;13.328;2022-07-06T04:28:04;16.80;23.70
47576;DHT22;33304;52.456;13.328;2022-07-06T04:30:33;16.80;23.60
47576;DHT22;33304;52.456;13.328;2022-07-06T04:33:02;16.80;23.60
47576;DHT22;33304;52.456;13.328;2022-07-06T04:35:32;16.80;23.70
47576;DHT22;33304;52.456;13.328;2022-07-06T04:37:59;16.90;24.10
47576;DHT22;33304;52.456;13.328;2022-07-06T04:40:26;16.80;23.80
47576;DHT22;33304;52.456;13.328;2022-07-06T04:42:58;16.60;23.50
47576;DHT22;33304;52.456;13.328;2022-07-06T04:45:29;16.50;24.00
47576;DHT22;33304;52.456;13.328;2022-07-06T04:47:56;16.60;25.00
47576;DHT22;33304;52.456;13.328;2022-07-06T04:50:24;16.50;24.10
47576;DHT22;33304;52.456;13.328;2022-07-06T04:52:53;16.70;23.70
47576;DHT22;33304;52.456;13.328;2022-07-06T04:55:20;16.60;23.70
47576;DHT22;33304;52.456;13.328;2022-07-06T04:57:48;16.70;22.90
47576;DHT22;33304;52.456;13.328;2022-07-06T05:00:18;16.80;22.70
47576;DHT22;33304;52.456;13.328;2022-07-06T05:02:48;16.90;22.00
47576;DHT22;33304;52.456;13.328;2022-07-06T05:05:17;16.60;23.10
47576;DHT22;33304;52.456;13.328;2022-07-06T05:07:45;16.80;22.30
47576;DHT22;33304;52.456;13.328;2022-07-06T05:10:12;16.80;22.50
47576;DHT22;33304;52.456;13.328;2022-07-06T05:12:43;17.10;22.80
47576;DHT22;33304;52.456;13.328;2022-07-06T05:15:11;16.90;21.70
47576;DHT22;33304;52.456;13.328;2022-07-06T05:17:38;16.80;21.50
47576;DHT22;33304;52.456;13.328;2022-07-06T05:20:08;16.60;21.70
47576;DHT22;33304;52.456;13.328;2022-07-06T05:22:38;16.90;22.10
47576;DHT22;33304;52.456;13.328;2022-07-06T05:25:06;16.90;21.30
47576;DHT22;33304;52.456;13.328;2022-07-06T05:27:33;17.10;21.70
47576;DHT22;33304;52.456;13.328;2022-07-06T05:30:00;17.30;20.10
47576;DHT22;33304;52.456;13.328;2022-07-06T05:32:29;17.20;20.10
47576;DHT22;33304;52.456;13.328;2022-07-06T05:34:57;17.10;20.10
47576;DHT22;33304;52.456;13.328;2022-07-06T05:37:25;17.20;19.90
47576;DHT22;33304;52.456;13.328;2022-07-06T05:39:52;17.10;20.40
47576;DHT22;33304;52.456;13.328;2022-07-06T05:42:19;17.10;20.40
47576;DHT22;33304;52.456;13.328;2022-07-06T05:44:47;17.30;20.60
47576;DHT22;33304;52.456;13.328;2022-07-06T05:47:15;17.40;20.00
47576;DHT22;33304;52.456;13.328;2022-07-06T05:49:56;17.10;19.90
47576;DHT22;33304;52.456;13.328;2022-07-06T05:52:57;17.30;21.20
47576;DHT22;33304;52.456;13.328;2022-07-06T05:55:26;17.50;19.80
47576;DHT22;33304;52.456;13.328;2022-07-06T05:57:54;17.50;18.70
47576;DHT22;33304;52.456;13.328;2022-07-06T06:00:23;17.40;18.80
47576;DHT22;33304;52.456;13.328;2022-07-06T06:02:53;17.30;18.90
47576;DHT22;33304;52.456;13.328;2022-07-06T06:05:21;17.30;19.30
47576;DHT22;33304;52.456;13.328;2022-07-06T06:07:52;17.40;18.70
47576;DHT22;33304;52.456;13.328;2022-07-06T06:10:24;17.70;17.80
47576;DHT22;33304;52.456;13.328;2022-07-06T06:12:54;17.70;17.90
47576;DHT22;33304;52.456;13.328;2022-07-06T06:15:21;17.90;17.90
47576;DHT22;33304;52.456;13.328;2022-07-06T06:17:48;17.80;17.80
47576;DHT22;33304;52.456;13.328;2022-07-06T06:20:16;17.90;17.90
47576;DHT22;33304;52.456;13.328;2022-07-06T06:22:51;17.90;17.90
47576;DHT22;33304;52.456;13.328;2022-07-06T06:25:19;18.30;18.20
47576;DHT22;33304;52.456;13.328;2022-07-06T06:27:48;18.60;16.50
47576;DHT22;33304;52.456;13.328;2022-07-06T06:30:15;18.80;15.70
47576;DHT22;33304;52.456;13.328;2022-07-06T06:32:42;18.70;15.70
47576;DHT22;33304;52.456;13.328;2022-07-06T06:35:10;18.80;15.70
47576;DHT22;33304;52.456;13.328;2022-07-06T06:37:37;19.20;15.50
47576;DHT22;33304;52.456;13.328;2022-07-06T06:40:06;19.10;15.10
47576;DHT22;33304;52.456;13.328;2022-07-06T06:42:35;19.40;15.10
47576;DHT22;33304;52.456;13.328;2022-07-06T06:45:08;19.40;14.30
47576;DHT22;33304;52.456;13.328;2022-07-06T06:47:35;19.60;14.10
47576;DHT22;33304;52.456;13.328;2022-07-06T06:50:03;19.80;13.20
47576;DHT22;33304;52.456;13.328;2022-07-06T06:52:31;20.00;13.80
47576;DHT22;33304;52.456;13.328;2022-07-06T06:54:58;20.00;14.00
47576;DHT22;33304;52.456;13.328;2022-07-06T06:57:25;19.80;12.70
47576;DHT22;33304;52.456;13.328;2022-07-06T06:59:54;19.50;14.00
47576;DHT22;33304;52.456;13.328;2022-07-06T07:02:23;19.60;13.10
47576;DHT22;33304;52.456;13.328;2022-07-06T07:04:50;19.90;12.10
47576;DHT22;33304;52.456;13.328;2022-07-06T07:07:17;19.60;12.60
47576;DHT22;33304;52.456;13.328;2022-07-06T07:09:45;19.70;12.70
47576;DHT22;33304;52.456;13.328;2022-07-06T07:12:12;19.90;12.00
47576;DHT22;33304;52.456;13.328;2022-07-06T07:14:41;19.70;11.80
47576;DHT22;33304;52.456;13.328;2022-07-06T07:17:08;20.00;12.70
47576;DHT22;33304;52.456;13.328;2022-07-06T07:19:36;20.10;10.80
47576;DHT22;33304;52.456;13.328;2022-07-06T07:22:04;20.30;10.60
47576;DHT22;33304;52.456;13.328;2022-07-06T07:24:31;20.30;11.60
47576;DHT22;33304;52.456;13.328;2022-07-06T07:26:58;20.60;11.70
47576;DHT22;33304;52.456;13.328;2022-07-06T07:29:25;20.50;11.40
47576;DHT22;33304;52.456;13.328;2022-07-06T07:31:52;20.00;9.90
47576;DHT22;33304;52.456;13.328;2022-07-06T07:34:20;19.50;12.10
47576;DHT22;33304;52.456;13.328;2022-07-06T07:36:48;19.50;12.50
47576;DHT22;33304;52.456;13.328;2022-07-06T07:39:15;19.30;10.20
47576;DHT22;33304;52.456;13.328;2022-07-06T07:41:42;19.30;10.70
47576;DHT22;33304;52.456;13.328;2022-07-06T07:44:09;19.60;10.00
47576;DHT22;33304;52.456;13.328;2022-07-06T07:46:37;19.70;9.10
47576;DHT22;33304;52.456;13.328;2022-07-06T07:49:04;19.60;9.10
47576;DHT22;33304;52.456;13.328;2022-07-06T07:51:33;19.80;9.20
47576;DHT22;33304;52.456;13.328;2022-07-06T07:54:02;19.70;5.60
47576;DHT22;33304;52.456;13.328;2022-07-06T07:56:29;19.60;4.70
47576;DHT22;33304;52.456;13.328;2022-07-06T07:58:56;19.60;6.50
47576;DHT22;33304;52.456;13.328;2022-07-06T08:01:28;19.60;7.40
47576;DHT22;33304;52.456;13.328;2022-07-06T08:03:55;19.70;7.90
47576;DHT22;33304;52.456;13.328;2022-07-06T08:06:23;19.80;7.60
47576;DHT22;33304;52.456;13.328;2022-07-06T08:08:51;20.40;8.50
47576;DHT22;33304;52.456;13.328;2022-07-06T08:11:20;20.50;6.20
47576;DHT22;33304;52.456;13.328;2022-07-06T08:13:47;20.50;6.50
47576;DHT22;33304;52.456;13.328;2022-07-06T08:16:15;20.40;7.70
47576;DHT22;33304;52.456;13.328;2022-07-06T08:18:42;20.30;8.40
47576;DHT22;33304;52.456;13.328;2022-07-06T08:21:09;20.30;7.30
47576;DHT22;33304;52.456;13.328;2022-07-06T08:23:37;20.40;8.30
47576;DHT22;33304;52.456;13.328;2022-07-06T08:26:04;20.50;9.10
47576;DHT22;33304;52.456;13.328;2022-07-06T08:28:33;20.80;8.20
47576;DHT22;33304;52.456;13.328;2022-07-06T08:31:00;20.60;8.00
47576;DHT22;33304;52.456;13.328;2022-07-06T08:33:27;19.90;8.20
47576;DHT22;33304;52.456;13.328;2022-07-06T08:35:54;20.00;9.30
47576;DHT22;33304;52.456;13.328;2022-07-06T08:38:22;20.30;8.60
47576;DHT22;33304;52.456;13.328;2022-07-06T08:40:50;20.50;6.70
47576;DHT22;33304;52.456;13.328;2022-07-06T08:43:17;20.40;6.30
47576;DHT22;33304;52.456;13.328;2022-07-06T08:45:46;20.20;6.70
47576;DHT22;33304;52.456;13.328;2022-07-06T08:48:17;20.00;6.00
47576;DHT22;33304;52.456;13.328;2022-07-06T08:50:45;19.70;7.20
47576;DHT22;33304;52.456;13.328;2022-07-06T08:53:12;19.90;6.40
47576;DHT22;33304;52.456;13.328;2022-07-06T08:55:39;20.40;7.50
47576;DHT22;33304;52.456;13.328;2022-07-06T08:58:07;20.30;4.50
47576;DHT22;33304;52.456;13.328;2022-07-06T09:00:34;19.90;5.00
47576;DHT22;33304;52.456;13.328;2022-07-06T09:03:04;19.80;5.40
47576;DHT22;33304;52.456;13.328;2022-07-06T09:05:32;19.50;6.40
47576;DHT22;33304;52.456;13.328;2022-07-06T09:08:02;19.50;5.60
47576;DHT22;33304;52.456;13.328;2022-07-06T09:10:29;19.40;5.50
47576;DHT22;33304;52.456;13.328;2022-07-06T09:13:03;19.50;6.30
47576;DHT22;33304;52.456;13.328;2022-07-06T09:15:31;19.30;5.30
47576;DHT22;33304;52.456;13.328;2022-07-06T09:17:58;19.30;6.10
47576;DHT22;33304;52.456;13.328;2022-07-06T09:20:27;19.50;5.20
47576;DHT22;33304;52.456;13.328;2022-07-06T09:22:57;19.50;5.00
47576;DHT22;33304;52.456;13.328;2022-07-06T09:25:27;19.80;5.50
47576;DHT22;33304;52.456;13.328;2022-07-06T09:27:56;19.70;3.10
47576;DHT22;33304;52.456;13.328;2022-07-06T09:30:25;19.60;1.90
47576;DHT22;33304;52.456;13.328;2022-07-06T09:32:54;19.50;3.60
47576;DHT22;33304;52.456;13.328;2022-07-06T09:35:23;19.60;2.30
47576;DHT22;33304;52.456;13.328;2022-07-06T09:38:02;19.70;1.70
47576;DHT22;33304;52.456;13.328;2022-07-06T09:40:31;19.60;1.00
47576;DHT22;33304;52.456;13.328;2022-07-06T09:43:11;19.60;1.30
47576;DHT22;33304;52.456;13.328;2022-07-06T09:45:41;19.70;1.20
47576;DHT22;33304;52.456;13.328;2022-07-06T09:48:12;19.90;1.00
47576;DHT22;33304;52.456;13.328;2022-07-06T09:50:42;20.20;1.70
47576;DHT22;33304;52.456;13.328;2022-07-06T09:53:12;20.60;1.00
47576;DHT22;33304;52.456;13.328;2022-07-06T09:55:43;20.50;1.00
47576;DHT22;33304;52.456;13.328;2022-07-06T09:58:11;20.20;1.00
47576;DHT22;33304;52.456;13.328;2022-07-06T10:00:38;19.80;2.00
47576;DHT22;33304;52.456;13.328;2022-07-06T10:03:07;19.60;1.80
47576;DHT22;33304;52.456;13.328;2022-07-06T10:05:36;19.50;2.20
47576;DHT22;33304;52.456;13.328;2022-07-06T10:08:06;19.60;2.40
47576;DHT22;33304;52.456;13.328;2022-07-06T10:10:37;19.60;2.50
47576;DHT22;33304;52.456;13.328;2022-07-06T10:13:05;19.90;2.80
47576;DHT22;33304;52.456;13.328;2022-07-06T10:15:34;20.00;2.00
47576;DHT22;33304;52.456;13.328;2022-07-06T10:18:03;19.90;2.20
47576;DHT22;33304;52.456;13.328;2022-07-06T10:20:33;19.90;2.50
47576;DHT22;33304;52.456;13.328;2022-07-06T10:23:03;19.90;2.50
47576;DHT22;33304;52.456;13.328;2022-07-06T10:25:32;20.10;3.10
47576;DHT22;33304;52.456;13.328;2022-07-06T10:28:00;20.10;3.20
47576;DHT22;33304;52.456;13.328;2022-07-06T10:30:28;20.20;4.00
47576;DHT22;33304;52.456;13.328;2022-07-06T10:32:57;20.30;3.10
47576;DHT22;33304;52.456;13.328;2022-07-06T10:35:25;20.30;2.10
47576;DHT22;33304;52.456;13.328;2022-07-06T10:38:04;20.70;2.60
47576;DHT22;33304;52.456;13.328;2022-07-06T10:40:32;20.80;2.10
47576;DHT22;33304;52.456;13.328;2022-07-06T10:43:18;20.80;1.00
47576;DHT22;33304;52.456;13.328;2022-07-06T10:45:52;20.80;1.00
47576;DHT22;33304;52.456;13.328;2022-07-06T10:48:20;20.80;2.00
47576;DHT22;33304;52.456;13.328;2022-07-06T10:50:51;21.50;2.50
47576;DHT22;33304;52.456;13.328;2022-07-06T10:53:22;21.80;1.00
47576;DHT22;33304;52.456;13.328;2022-07-06T10:55:51;21.90;1.10
47576;DHT22;33304;52.456;13.328;2022-07-06T10:58:46;21.50;1.00
47576;DHT22;33304;52.456;13.328;2022-07-06T11:01:14;21.60;3.00
47576;DHT22;33304;52.456;13.328;2022-07-06T11:03:43;21.90;1.00
47576;DHT22;33304;52.456;13.328;2022-07-06T11:06:13;21.90;1.00
47576;DHT22;33304;52.456;13.328;2022-07-06T11:08:51;21.90;1.00
47576;DHT22;33304;52.456;13.328;2022-07-06T11:11:21;21.90;1.00
47576;DHT22;33304;52.456;13.328;2022-07-06T11:13:55;21.90;1.00
47576;DHT22;33304;52.456;13.328;2022-07-06T11:16:24;21.70;1.00
47576;DHT22;33304;52.456;13.328;2022-07-06T11:19:04;21.60;1.10
47576;DHT22;33304;52.456;13.328;2022-07-06T11:21:37;21.10;1.70
47576;DHT22;33304;52.456;13.328;2022-07-06T11:24:07;20.90;2.40
47576;DHT22;33304;52.456;13.328;2022-07-06T11:26:34;20.50;2.80
47576;DHT22;33304;52.456;13.328;2022-07-06T11:29:05;20.40;3.50
47576;DHT22;33304;52.456;13.328;2022-07-06T11:31:34;20.50;3.00
47576;DHT22;33304;52.456;13.328;2022-07-06T11:34:02;20.80;2.20
47576;DHT22;33304;52.456;13.328;2022-07-06T11:36:29;21.00;2.10
47576;DHT22;33304;52.456;13.328;2022-07-06T11:38:57;21.10;1.00
47576;DHT22;33304;52.456;13.328;2022-07-06T11:41:25;21.10;1.70
47576;DHT22;33304;52.456;13.328;2022-07-06T11:43:52;21.60;1.30
47576;DHT22;33304;52.456;13.328;2022-07-06T11:46:28;21.90;1.00
47576;DHT22;33304;52.456;13.328;2022-07-06T11:48:56;22.30;1.00
47576;DHT22;33304;52.456;13.328;2022-07-06T11:51:25;22.90;1.00
47576;DHT22;33304;52.456;13.328;2022-07-06T11:53:55;23.20;1.00
47576;DHT22;33304;52.456;13.328;2022-07-06T11:56:23;23.30;1.00
47576;DHT22;33304;52.456;13.328;2022-07-06T11:58:53;23.20;1.00
47576;DHT22;33304;52.456;13.328;2022-07-06T12:01:21;22.80;1.00
47576;DHT22;33304;52.456;13.328;2022-07-06T12:03:51;22.70;1.00
47576;DHT22;33304;52.456;13.328;2022-07-06T12:06:20;23.10;1.00
47576;DHT22;33304;52.456;13.328;2022-07-06T12:08:49;23.10;1.00
47576;DHT22;33304;52.456;13.328;2022-07-06T12:11:20;23.10;1.00
47576;DHT22;33304;52.456;13.328;2022-07-06T12:13:49;22.80;1.00
47576;DHT22;33304;52.456;13.328;2022-07-06T12:16:16;22.60;1.00
47576;DHT22;33304;52.456;13.328;2022-07-06T12:18:45;22.30;1.00
47576;DHT22;33304;52.456;13.328;2022-07-06T12:21:17;22.00;1.00
47576;DHT22;33304;52.456;13.328;2022-07-06T12:23:45;22.20;1.00
47576;DHT22;33304;52.456;13.328;2022-07-06T12:26:14;22.60;1.00
47576;DHT22;33304;52.456;13.328;2022-07-06T12:28:41;22.80;1.00
47576;DHT22;33304;52.456;13.328;2022-07-06T12:31:09;23.00;1.00
47576;DHT22;33304;52.456;13.328;2022-07-06T12:33:37;23.30;1.20
47576;DHT22;33304;52.456;13.328;2022-07-06T12:36:14;23.60;1.00
47576;DHT22;33304;52.456;13.328;2022-07-06T12:38:46;23.20;1.00
47576;DHT22;33304;52.456;13.328;2022-07-06T12:41:27;23.40;1.00
47576;DHT22;33304;52.456;13.328;2022-07-06T12:44:06;23.70;1.00
47576;DHT22;33304;52.456;13.328;2022-07-06T12:46:35;23.70;1.00
47576;DHT22;33304;52.456;13.328;2022-07-06T12:49:10;23.40;1.00
47576;DHT22;33304;52.456;13.328;2022-07-06T12:51:53;22.90;1.00
47576;DHT22;33304;52.456;13.328;2022-07-06T12:54:21;22.80;1.00
47576;DHT22;33304;52.456;13.328;2022-07-06T12:56:59;23.00;1.00
47576;DHT22;33304;52.456;13.328;2022-07-06T12:59:28;22.60;1.00
47576;DHT22;33304;52.456;13.328;2022-07-06T13:01:56;23.10;1.00
47576;DHT22;33304;52.456;13.328;2022-07-06T13:04:24;23.30;1.00
47576;DHT22;33304;52.456;13.328;2022-07-06T13:06:53;22.70;1.00
47576;DHT22;33304;52.456;13.328;2022-07-06T13:09:21;22.50;1.00
47576;DHT22;33304;52.456;13.328;2022-07-06T13:11:49;22.60;1.00
47576;DHT22;33304;52.456;13.328;2022-07-06T13:14:17;22.50;1.00
47576;DHT22;33304;52.456;13.328;2022-07-06T13:16:46;22.40;1.00
47576;DHT22;33304;52.456;13.328;2022-07-06T13:19:14;22.20;1.00
47576;DHT22;33304;52.456;13.328;2022-07-06T13:21:41;22.10;1.00
47576;DHT22;33304;52.456;13.328;2022-07-06T13:24:11;22.10;1.00
47576;DHT22;33304;52.456;13.328;2022-07-06T13:26:39;22.10;1.00
47576;DHT22;33304;52.456;13.328;2022-07-06T13:29:06;22.20;1.00
47576;DHT22;33304;52.456;13.328;2022-07-06T13:31:37;22.70;1.00
47576;DHT22;33304;52.456;13.328;2022-07-06T13:34:05;23.00;1.00
47576;DHT22;33304;52.456;13.328;2022-07-06T13:36:32;22.70;1.00
47576;DHT22;33304;52.456;13.328;2022-07-06T13:39:00;22.80;1.00
47576;DHT22;33304;52.456;13.328;2022-07-06T13:41:28;22.70;1.00
47576;DHT22;33304;52.456;13.328;2022-07-06T13:43:55;22.50;1.00
47576;DHT22;33304;52.456;13.328;2022-07-06T13:46:23;22.30;1.00
47576;DHT22;33304;52.456;13.328;2022-07-06T13:48:51;21.90;1.00
47576;DHT22;33304;52.456;13.328;2022-07-06T13:51:18;21.80;1.00
47576;DHT22;33304;52.456;13.328;2022-07-06T13:53:46;21.40;1.00
47576;DHT22;33304;52.456;13.328;2022-07-06T13:56:13;21.50;1.00
47576;DHT22;33304;52.456;13.328;2022-07-06T13:58:42;21.70;1.00
47576;DHT22;33304;52.456;13.328;2022-07-06T14:01:10;21.90;1.00
47576;DHT22;33304;52.456;13.328;2022-07-06T14:03:37;22.00;1.00
47576;DHT22;33304;52.456;13.328;2022-07-06T14:06:05;22.20;1.00
47576;DHT22;33304;52.456;13.328;2022-07-06T14:08:34;22.40;1.00
47576;DHT22;33304;52.456;13.328;2022-07-06T14:11:02;22.40;1.00
47576;DHT22;33304;52.456;13.328;2022-07-06T14:13:29;22.40;1.00
47576;DHT22;33304;52.456;13.328;2022-07-06T14:15:58;22.40;1.00
47576;DHT22;33304;52.456;13.328;2022-07-06T14:18:25;22.50;1.00
47576;DHT22;33304;52.456;13.328;2022-07-06T14:20:53;22.50;1.00
47576;DHT22;33304;52.456;13.328;2022-07-06T14:23:21;22.30;1.00
47576;DHT22;33304;52.456;13.328;2022-07-06T14:25:49;22.50;1.00
47576;DHT22;33304;52.456;13.328;2022-07-06T14:28:17;21.90;1.00
47576;DHT22;33304;52.456;13.328;2022-07-06T14:30:45;21.50;1.00
47576;DHT22;33304;52.456;13.328;2022-07-06T14:33:14;21.50;1.00
47576;DHT22;33304;52.456;13.328;2022-07-06T14:35:44;21.30;1.00
47576;DHT22;33304;52.456;13.328;2022-07-06T14:38:13;21.30;1.00
47576;DHT22;33304;52.456;13.328;2022-07-06T14:40:41;21.30;1.00
47576;DHT22;33304;52.456;13.328;2022-07-06T14:43:08;21.00;1.20
47576;DHT22;33304;52.456;13.328;2022-07-06T14:45:36;21.10;1.00
47576;DHT22;33304;52.456;13.328;2022-07-06T14:48:04;20.80;1.60
47576;DHT22;33304;52.456;13.328;2022-07-06T14:50:33;20.80;1.70
47576;DHT22;33304;52.456;13.328;2022-07-06T14:53:01;20.80;1.80
47576;DHT22;33304;52.456;13.328;2022-07-06T14:55:28;20.60;2.60
47576;DHT22;33304;52.456;13.328;2022-07-06T14:57:55;20.40;3.00
47576;DHT22;33304;52.456;13.328;2022-07-06T15:00:22;20.20;3.20
47576;DHT22;33304;52.456;13.328;2022-07-06T15:02:49;20.00;3.80
47576;DHT22;33304;52.456;13.328;2022-07-06T15:05:17;20.30;3.80
47576;DHT22;33304;52.456;13.328;2022-07-06T15:07:45;20.30;3.70
47576;DHT22;33304;52.456;13.328;2022-07-06T15:10:12;20.30;5.00
47576;DHT22;33304;52.456;13.328;2022-07-06T15:12:39;20.40;4.30
47576;DHT22;33304;52.456;13.328;2022-07-06T15:15:07;20.70;3.30
47576;DHT22;33304;52.456;13.328;2022-07-06T15:17:35;20.30;3.70
47576;DHT22;33304;52.456;13.328;2022-07-06T15:20:03;20.40;4.20
47576;DHT22;33304;52.456;13.328;2022-07-06T15:22:30;20.30;3.80
47576;DHT22;33304;52.456;13.328;2022-07-06T15:25:00;20.40;3.80
47576;DHT22;33304;52.456;13.328;2022-07-06T15:27:27;20.40;4.00
47576;DHT22;33304;52.456;13.328;2022-07-06T15:29:55;20.40;4.60
47576;DHT22;33304;52.456;13.328;2022-07-06T15:32:22;20.50;4.60